メインページ
METAR-TAF:

METAR-TAF

空港 :

ベオグラード, セルビア

ベオグラード・ニコラ・テスラ空港

緯度: 44-49N, 経度: 020-17E, 海抜: 96m

現時点の気象観測

当レポートは18分前の23:00(UTC)に作成
西の風 4kt
気温 14°C
湿度 77%
気圧 1020 hPa
視程10km以上
1,500メートル以下は雲なし、積乱雲なし

METAR: LYBE 272300Z 27004KT CAVOK 14/10 Q1020 NOSIG

時間: 01:18 (23:18 UTC)

予報

当レポートは6時間18分前の17:00(UTC)に作成
予報は27日の 18時(UTC)から 28日の 18時(UTC)まで有効
北/北東の風 8kt
視程10km以上
1,500メートル以下は雲なし、積乱雲なし

TAF: LYBE 271700Z 2718/2818 02008KT CAVOK TX25/2813Z TN12/2803Z

4,000以上の空港の気象観測と天気予報(METAR報とTAF報)

利用可能な観測所は地図上に黄色い丸と赤い丸で示す。

丸の上にカーソルを重ねると観測所名を参照できる。

次にクリックすると気象観測と天気予報を参照できる。

マップの切り替え:黒色「×」印の緑ボタンをクリックして拡大、「-」印の緑ボタンをクリックして縮小、緑色の三角印をクリックして隣りの地図に切り替え


METAR-TAF: